Etusivu
METAR-TAF:

METAR-TAF

Lentoasemat :

Luni

Sarzana, Italia

Leveyspiiri: 44-05N, Pituuspiiri: 009-59E, korkeus merenpinnasta: 9 m

Tämänhetkinen sää

Tämä raportti tehtiin 1 tunti ja 25 minuuttia sitten, kello 14.55 UTC
Tuuli 10 kn pohjoisen/luoteesta
Lämpötila 19°C
Kosteus 26%
Ilmanpaine 1025 hPa
Näkyvyys 10 km tai enemmän
ei pilviä alle 1500 m:ssä eikä cumulonimbus-pilviä

METAR: LIQW 211455Z 33010KT CAVOK 19/M01 Q1025

Aika: 17:20 (16:20 UTC)


TAF: puuttuu

Säähavainnot ja -ennusteet yli 4000 lentoasemalta (METAR- ja TAF-raportit).

Käytössä olevat sääasemat on merkitty karttaan keltaisilla ja punaisilla pisteillä.

Aseta hiiri pisteen päälle nähdäksesi sääaseman nimen.

Klikkaa sitten nähdäksesi säähavainnot ja -ennusteet.

Kartan vaihtaminen: klikkaa mustalla rastilla varustettuja vihreitä pisteitä, niin voit zoomata sisään; viivalla varustettua vihreää pistettä, niin voit zoomata ulos tai vihreitä nuolia, niin pääset viereisille kartoille.


METAR-TAF: